Date,TemperatureHighF,TemperatureAvgF,TemperatureLowF,DewpointHighF,DewpointAvgF,DewpointLowF,HumidityHigh,HumidityAvg,HumidityLow,PressureMaxIn,PressureMinIn,WindSpeedMaxMPH,WindSpeedAvgMPH,GustSpeedMaxMPH,PrecipitationSumIn
2013-1-1,39.0,34.2,31.0,28.0,22.0,14.0,80,62,44,30.11,30.01,21,10,30,0.01
2013-1-2,46.0,38.1,32.0,16.0,12.8,10.0,48,35,26,30.06,29.98,18,10,27,0.00
2013-1-3,49.0,40.8,37.0,17.0,11.4,5.0,36,30,25,30.14,29.97,17,12,25,0.00
2013-1-4,49.0,39.2,34.0,14.0,7.4,4.0,32,26,22,30.19,30.11,14,6,19,0.00
2013-1-5,49.0,40.6,34.0,22.0,8.2,0.0,49,26,21,30.22,30.10,15,4,22,0.00
2013-1-6,40.0,35.5,32.0,35.0,28.2,13.0,98,79,36,30.10,29.85,27,16,38,0.03
2013-1-7,48.0,38.9,31.0,35.0,27.8,17.0,98,70,34,29.96,29.81,13,4,20,0.08
2013-1-8,62.0,54.1,46.0,31.0,26.3,13.0,45,34,25,30.12,29.99,10,4,15,0.00
2013-1-9,62.0,52.0,45.0,43.0,32.1,26.0,88,48,32,30.16,29.93,17,8,24,0.00
2013-1-10,48.0,34.9,27.0,38.0,31.6,21.0,98,90,43,29.93,29.68,37,22,55,0.06
2013-1-11,35.0,28.5,24.0,26.0,21.2,17.0,92,75,52,29.98,29.85,19,10,30,0.01
2013-1-12,39.0,29.7,23.0,26.0,19.9,14.0,100,69,40,29.98,29.84,14,-2,20,0.01
2013-1-13,40.0,30.3,24.0,24.0,16.6,12.0,79,57,36,29.98,29.86,11,4,16,0.00
2013-1-14,34.0,27.3,21.0,15.0,3.8,-3.0,62,37,21,30.15,29.95,12,8,19,0.00
2013-1-15,39.0,30.9,23.0,14.0,7.4,-2.0,46,37,31,30.27,30.15,19,10,26,0.00
2013-1-16,47.0,40.6,33.0,21.0,18.3,14.0,49,41,34,30.27,30.15,20,14,29,0.00
2013-1-17,54.0,47.4,43.0,19.0,16.5,15.0,34,29,23,30.22,30.12,22,14,31,0.00
2013-1-18,57.0,49.1,45.0,22.0,17.5,15.0,32,28,24,30.20,30.11,20,10,28,0.00
2013-1-19,57.0,50.0,45.0,20.0,15.6,12.0,29,25,20,30.21,30.12,15,9,25,0.00
2013-1-20,59.0,50.7,45.0,16.0,11.2,6.0,25,20,14,30.16,30.07,16,7,22,0.00
2013-1-21,62.0,52.9,49.0,12.0,7.4,4.0,19,16,13,30.12,30.05,15,8,23,0.00
2013-1-22,62.0,53.1,48.0,17.0,8.3,2.0,23,16,13,30.15,30.09,14,6,21,0.00
2013-1-23,63.0,55.7,49.0,37.0,26.2,11.0,53,33,20,30.16,30.08,14,4,25,0.00
2013-1-24,54.0,49.5,46.0,52.0,43.5,34.0,98,81,51,30.17,30.07,13,4,24,0.07
2013-1-25,47.0,46.2,44.0,46.0,44.4,42.0,99,94,85,30.16,29.96,8,4,12,0.58
2013-1-26,49.0,47.2,45.0,49.0,47.2,45.0,100,99,99,29.93,29.85,20,13,27,0.11
2013-1-27,45.0,39.5,33.0,45.0,38.7,31.0,100,97,93,29.93,29.82,27,17,37,0.11
2013-1-28,38.0,33.5,31.0,32.0,30.2,26.0,98,88,62,30.04,29.83,30,15,39,0.01
2013-1-29,46.0,37.5,31.0,39.0,32.8,26.0,97,84,70,30.13,30.00,27,14,39,0.01
2013-1-30,53.0,45.8,39.0,35.0,30.5,28.0,74,56,44,30.26,30.13,17,8,25,0.00
2013-1-31,56.0,51.0,47.0,35.0,31.9,30.0,53,48,42,30.22,30.12,17,9,25,0.00